sensor_id;sensor_type;location;lat;lon;timestamp;pressure;altitude;pressure_sealevel;temperature;humidity
8697;BME280;4385;48.848;8.924;2024-03-23T10:16:10;96952.22;;;18.55;100.00
8697;BME280;4385;48.848;8.924;2024-03-23T10:18:39;96949.59;;;18.56;100.00
8697;BME280;4385;48.848;8.924;2024-03-23T10:21:11;96949.50;;;18.60;100.00
8697;BME280;4385;48.848;8.924;2024-03-23T10:23:41;96948.63;;;18.61;100.00
8697;BME280;4385;48.848;8.924;2024-03-23T10:28:57;96964.69;;;18.64;100.00
8697;BME280;4385;48.848;8.924;2024-03-23T10:31:25;97001.16;;;18.66;100.00
8697;BME280;4385;48.848;8.924;2024-03-23T10:33:51;97008.78;;;18.68;100.00
8697;BME280;4385;48.848;8.924;2024-03-23T10:36:19;97022.34;;;18.70;100.00
8697;BME280;4385;48.848;8.924;2024-03-23T10:38:46;97033.38;;;18.71;100.00
8697;BME280;4385;48.848;8.924;2024-03-23T10:41:12;97059.69;;;18.73;100.00
8697;BME280;4385;48.848;8.924;2024-03-23T10:43:38;97063.06;;;18.73;100.00
8697;BME280;4385;48.848;8.924;2024-03-23T10:46:04;97069.84;;;18.74;100.00
8697;BME280;4385;48.848;8.924;2024-03-23T10:48:33;97070.69;;;18.75;100.00
8697;BME280;4385;48.848;8.924;2024-03-23T10:50:59;97068.09;;;18.76;100.00
8697;BME280;4385;48.848;8.924;2024-03-23T10:53:28;97041.66;;;18.77;100.00
8697;BME280;4385;48.848;8.924;2024-03-23T10:55:55;97027.25;;;18.76;100.00
8697;BME280;4385;48.848;8.924;2024-03-23T10:58:24;97021.25;;;18.77;100.00
8697;BME280;4385;48.848;8.924;2024-03-23T11:00:52;97022.16;;;18.76;100.00
8697;BME280;4385;48.848;8.924;2024-03-23T11:03:35;97009.38;;;18.76;100.00
8697;BME280;4385;48.848;8.924;2024-03-23T11:06:04;97009.38;;;18.76;100.00
8697;BME280;4385;48.848;8.924;2024-03-23T11:08:38;97004.31;;;18.75;100.00
8697;BME280;4385;48.848;8.924;2024-03-23T11:13:38;96995.81;;;18.74;100.00
8697;BME280;4385;48.848;8.924;2024-03-23T11:18:39;97005.13;;;18.77;100.00
8697;BME280;4385;48.848;8.924;2024-03-23T11:21:06;96991.44;;;18.79;100.00
8697;BME280;4385;48.848;8.924;2024-03-23T11:23:32;96992.22;;;18.81;100.00
8697;BME280;4385;48.848;8.924;2024-03-23T11:25:57;96988.72;;;18.84;100.00
8697;BME280;4385;48.848;8.924;2024-03-23T11:28:22;96992.03;;;18.88;100.00
8697;BME280;4385;48.848;8.924;2024-03-23T11:30:48;96993.69;;;18.89;100.00
8697;BME280;4385;48.848;8.924;2024-03-23T11:33:13;96996.13;;;18.92;100.00
8697;BME280;4385;48.848;8.924;2024-03-23T11:35:40;96993.53;;;18.93;100.00
8697;BME280;4385;48.848;8.924;2024-03-23T11:38:09;97000.31;;;18.94;100.00
8697;BME280;4385;48.848;8.924;2024-03-23T11:40:36;96999.44;;;18.96;100.00
8697;BME280;4385;48.848;8.924;2024-03-23T11:43:04;97008.66;;;19.00;100.00
8697;BME280;4385;48.848;8.924;2024-03-23T11:45:37;96996.69;;;19.02;100.00
8697;BME280;4385;48.848;8.924;2024-03-23T11:48:12;97007.63;;;19.05;100.00
8697;BME280;4385;48.848;8.924;2024-03-23T11:50:45;96996.53;;;19.06;100.00
8697;BME280;4385;48.848;8.924;2024-03-23T11:53:37;96988.88;;;19.06;100.00
8697;BME280;4385;48.848;8.924;2024-03-23T11:56:05;96999.03;;;19.08;100.00
8697;BME280;4385;48.848;8.924;2024-03-23T11:58:30;96999.03;;;19.10;100.00
8697;BME280;4385;48.848;8.924;2024-03-23T12:01:00;96990.50;;;19.09;100.00
8697;BME280;4385;48.848;8.924;2024-03-23T12:03:31;96990.47;;;19.11;100.00
8697;BME280;4385;48.848;8.924;2024-03-23T12:06:00;96980.25;;;19.11;100.00
8697;BME280;4385;48.848;8.924;2024-03-23T12:08:34;96975.16;;;19.11;100.00
8697;BME280;4385;48.848;8.924;2024-03-23T12:11:15;96972.53;;;19.12;100.00
8697;BME280;4385;48.848;8.924;2024-03-23T12:13:42;96969.94;;;19.14;100.00
8697;BME280;4385;48.848;8.924;2024-03-23T12:16:18;96958.88;;;19.13;100.00
8697;BME280;4385;48.848;8.924;2024-03-23T12:18:48;96958.00;;;19.14;100.00
8697;BME280;4385;48.848;8.924;2024-03-23T12:21:14;96963.06;;;19.16;100.00
8697;BME280;4385;48.848;8.924;2024-03-23T12:23:40;96963.16;;;19.13;100.00
8697;BME280;4385;48.848;8.924;2024-03-23T12:26:07;96961.28;;;19.18;100.00
8697;BME280;4385;48.848;8.924;2024-03-23T12:28:32;96959.50;;;19.20;100.00
8697;BME280;4385;48.848;8.924;2024-03-23T12:30:58;96950.97;;;19.21;100.00
8697;BME280;4385;48.848;8.924;2024-03-23T12:33:23;96959.50;;;19.20;100.00
8697;BME280;4385;48.848;8.924;2024-03-23T12:35:49;96958.63;;;19.21;100.00
8697;BME280;4385;48.848;8.924;2024-03-23T12:38:15;96960.31;;;19.22;100.00
8697;BME280;4385;48.848;8.924;2024-03-23T12:40:40;96958.50;;;19.24;100.00
8697;BME280;4385;48.848;8.924;2024-03-23T12:43:06;96969.53;;;19.26;100.00
8697;BME280;4385;48.848;8.924;2024-03-23T12:45:32;96962.75;;;19.25;100.00
8697;BME280;4385;48.848;8.924;2024-03-23T12:47:57;96957.53;;;19.28;100.00
8697;BME280;4385;48.848;8.924;2024-03-23T12:50:23;96960.91;;;19.29;100.00
8697;BME280;4385;48.848;8.924;2024-03-23T12:52:49;96958.31;;;19.30;100.00
8697;BME280;4385;48.848;8.924;2024-03-23T12:55:14;96955.66;;;19.34;100.00
8697;BME280;4385;48.848;8.924;2024-03-23T12:57:39;96952.19;;;19.36;100.00
8697;BME280;4385;48.848;8.924;2024-03-23T13:00:09;96953.84;;;19.37;100.00
8697;BME280;4385;48.848;8.924;2024-03-23T13:02:38;96955.53;;;19.37;100.00
8697;BME280;4385;48.848;8.924;2024-03-23T13:05:04;96957.22;;;19.38;100.00
8697;BME280;4385;48.848;8.924;2024-03-23T13:07:30;96948.66;;;19.39;100.00
8697;BME280;4385;48.848;8.924;2024-03-23T13:09:55;96937.44;;;19.43;100.00
8697;BME280;4385;48.848;8.924;2024-03-23T13:12:22;96940.00;;;19.43;100.00
8697;BME280;4385;48.848;8.924;2024-03-23T13:14:48;96929.78;;;19.43;100.00
8697;BME280;4385;48.848;8.924;2024-03-23T13:17:13;96946.84;;;19.42;100.00
8697;BME280;4385;48.848;8.924;2024-03-23T13:19:39;96923.00;;;19.42;100.00
8697;BME280;4385;48.848;8.924;2024-03-23T13:22:05;96915.34;;;19.42;100.00
8697;BME280;4385;48.848;8.924;2024-03-23T13:24:30;96899.13;;;19.43;100.00
8697;BME280;4385;48.848;8.924;2024-03-23T13:26:56;96900.88;;;19.42;100.00
8697;BME280;4385;48.848;8.924;2024-03-23T13:29:23;96905.06;;;19.43;100.00
8697;BME280;4385;48.848;8.924;2024-03-23T13:31:50;96911.03;;;19.44;100.00
8697;BME280;4385;48.848;8.924;2024-03-23T13:34:16;96912.91;;;19.39;100.00
8697;BME280;4385;48.848;8.924;2024-03-23T13:36:42;96935.69;;;19.45;100.00
8697;BME280;4385;48.848;8.924;2024-03-23T13:39:07;96941.59;;;19.47;100.00
8697;BME280;4385;48.848;8.924;2024-03-23T13:41:39;96955.16;;;19.48;100.00
8697;BME280;4385;48.848;8.924;2024-03-23T13:44:06;96970.44;;;19.49;100.00
8697;BME280;4385;48.848;8.924;2024-03-23T13:46:31;96978.06;;;19.51;100.00
8697;BME280;4385;48.848;8.924;2024-03-23T13:48:57;96977.13;;;19.53;100.00
8697;BME280;4385;48.848;8.924;2024-03-23T13:51:25;96996.69;;;19.54;100.00
8697;BME280;4385;48.848;8.924;2024-03-23T13:53:55;96994.13;;;19.54;100.00
8697;BME280;4385;48.848;8.924;2024-03-23T13:56:27;96985.56;;;19.55;100.00
8697;BME280;4385;48.848;8.924;2024-03-23T13:58:54;96984.75;;;19.55;100.00
8697;BME280;4385;48.848;8.924;2024-03-23T14:01:20;96988.13;;;19.55;100.00
8697;BME280;4385;48.848;8.924;2024-03-23T14:03:45;97002.59;;;19.56;100.00
8697;BME280;4385;48.848;8.924;2024-03-23T14:06:10;97019.59;;;19.58;100.00
8697;BME280;4385;48.848;8.924;2024-03-23T14:08:37;97014.47;;;19.58;100.00
8697;BME280;4385;48.848;8.924;2024-03-23T14:11:05;96998.25;;;19.59;100.00
8697;BME280;4385;48.848;8.924;2024-03-23T14:13:31;96996.53;;;19.59;100.00
8697;BME280;4385;48.848;8.924;2024-03-23T14:15:58;96972.63;;;19.60;100.00
8697;BME280;4385;48.848;8.924;2024-03-23T14:18:23;96966.66;;;19.61;100.00
8697;BME280;4385;48.848;8.924;2024-03-23T14:20:49;96952.13;;;19.62;100.00
8697;BME280;4385;48.848;8.924;2024-03-23T14:23:15;96932.53;;;19.62;100.00
8697;BME280;4385;48.848;8.924;2024-03-23T14:25:41;96926.56;;;19.62;100.00
8697;BME280;4385;48.848;8.924;2024-03-23T14:28:06;96918.03;;;19.63;100.00
8697;BME280;4385;48.848;8.924;2024-03-23T14:30:38;96913.69;;;19.65;100.00
8697;BME280;4385;48.848;8.924;2024-03-23T14:33:04;96910.25;;;19.66;100.00
8697;BME280;4385;48.848;8.924;2024-03-23T14:35:29;96927.25;;;19.67;100.00
8697;BME280;4385;48.848;8.924;2024-03-23T14:37:54;96925.47;;;19.69;100.00
8697;BME280;4385;48.848;8.924;2024-03-23T14:40:19;96924.63;;;19.68;100.00
8697;BME280;4385;48.848;8.924;2024-03-23T14:42:45;96928.97;;;19.66;100.00
8697;BME280;4385;48.848;8.924;2024-03-23T14:45:10;96945.13;;;19.67;100.00
8697;BME280;4385;48.848;8.924;2024-03-23T14:47:36;96944.31;;;19.66;100.00
8697;BME280;4385;48.848;8.924;2024-03-23T14:50:02;96950.31;;;19.65;100.00
8697;BME280;4385;48.848;8.924;2024-03-23T14:52:28;96951.25;;;19.63;100.00
8697;BME280;4385;48.848;8.924;2024-03-23T14:54:54;96949.56;;;19.62;100.00
8697;BME280;4385;48.848;8.924;2024-03-23T14:57:21;96959.78;;;19.62;100.00
8697;BME280;4385;48.848;8.924;2024-03-23T14:59:46;96958.13;;;19.61;100.00
8697;BME280;4385;48.848;8.924;2024-03-23T15:02:11;96967.50;;;19.60;100.00
8697;BME280;4385;48.848;8.924;2024-03-23T15:04:38;96966.66;;;19.61;100.00
8697;BME280;4385;48.848;8.924;2024-03-23T15:07:07;96965.84;;;19.59;100.00
8697;BME280;4385;48.848;8.924;2024-03-23T15:09:32;96956.44;;;19.61;100.00
8697;BME280;4385;48.848;8.924;2024-03-23T15:11:57;96942.81;;;19.61;100.00
8697;BME280;4385;48.848;8.924;2024-03-23T15:14:26;96935.09;;;19.62;100.00
8697;BME280;4385;48.848;8.924;2024-03-23T15:16:51;96926.56;;;19.62;100.00
8697;BME280;4385;48.848;8.924;2024-03-23T15:19:17;96921.47;;;19.62;100.00
8697;BME280;4385;48.848;8.924;2024-03-23T15:21:43;96926.56;;;19.62;100.00
8697;BME280;4385;48.848;8.924;2024-03-23T15:24:09;96921.47;;;19.62;100.00
8697;BME280;4385;48.848;8.924;2024-03-23T15:26:37;96905.31;;;19.61;100.00
8697;BME280;4385;48.848;8.924;2024-03-23T15:29:03;96915.59;;;19.60;100.00
8697;BME280;4385;48.848;8.924;2024-03-23T15:31:35;96914.63;;;19.62;100.00
8697;BME280;4385;48.848;8.924;2024-03-23T15:34:00;96913.78;;;19.62;100.00
8697;BME280;4385;48.848;8.924;2024-03-23T15:36:26;96917.25;;;19.61;100.00
8697;BME280;4385;48.848;8.924;2024-03-23T15:38:51;96913.78;;;19.62;100.00
8697;BME280;4385;48.848;8.924;2024-03-23T15:41:16;96908.63;;;19.63;100.00
8697;BME280;4385;48.848;8.924;2024-03-23T15:43:42;96919.63;;;19.65;100.00
8697;BME280;4385;48.848;8.924;2024-03-23T15:46:07;96910.25;;;19.66;100.00
8697;BME280;4385;48.848;8.924;2024-03-23T15:48:34;96915.38;;;19.66;100.00
8697;BME280;4385;48.848;8.924;2024-03-23T15:51:02;96914.53;;;19.65;100.00
8697;BME280;4385;48.848;8.924;2024-03-23T15:53:29;96910.25;;;19.66;100.00
8697;BME280;4385;48.848;8.924;2024-03-23T15:55:59;96904.25;;;19.67;100.00
8697;BME280;4385;48.848;8.924;2024-03-23T15:58:25;96896.59;;;19.67;100.00
8697;BME280;4385;48.848;8.924;2024-03-23T16:03:19;96888.00;;;19.68;100.00
8697;BME280;4385;48.848;8.924;2024-03-23T16:05:56;96881.25;;;19.67;100.00
8697;BME280;4385;48.848;8.924;2024-03-23T16:08:22;96877.84;;;19.66;100.00
8697;BME280;4385;48.848;8.924;2024-03-23T16:10:48;96866.81;;;19.66;100.00
8697;BME280;4385;48.848;8.924;2024-03-23T16:13:14;96869.38;;;19.66;100.00
8697;BME280;4385;48.848;8.924;2024-03-23T16:15:40;96878.75;;;19.65;100.00
8697;BME280;4385;48.848;8.924;2024-03-23T16:18:05;96883.91;;;19.64;100.00
8697;BME280;4385;48.848;8.924;2024-03-23T16:20:31;96886.47;;;19.64;100.00
8697;BME280;4385;48.848;8.924;2024-03-23T16:22:59;96893.22;;;19.65;100.00
8697;BME280;4385;48.848;8.924;2024-03-23T16:25:24;96900.03;;;19.66;100.00
8697;BME280;4385;48.848;8.924;2024-03-23T16:27:49;96917.09;;;19.65;100.00
8697;BME280;4385;48.848;8.924;2024-03-23T16:30:15;96926.47;;;19.65;100.00
8697;BME280;4385;48.848;8.924;2024-03-23T16:32:40;96920.47;;;19.66;100.00
8697;BME280;4385;48.848;8.924;2024-03-23T16:35:06;96892.38;;;19.66;100.00
8697;BME280;4385;48.848;8.924;2024-03-23T16:37:34;96887.25;;;19.66;100.00
8697;BME280;4385;48.848;8.924;2024-03-23T16:40:00;96884.69;;;19.66;100.00
8697;BME280;4385;48.848;8.924;2024-03-23T16:42:25;96901.69;;;19.67;100.00
8697;BME280;4385;48.848;8.924;2024-03-23T16:44:50;96897.44;;;19.67;100.00
8697;BME280;4385;48.848;8.924;2024-03-23T16:47:15;96897.44;;;19.67;100.00
8697;BME280;4385;48.848;8.924;2024-03-23T16:49:40;96896.59;;;19.67;100.00
8697;BME280;4385;48.848;8.924;2024-03-23T16:52:06;96893.13;;;19.68;100.00
8697;BME280;4385;48.848;8.924;2024-03-23T16:54:31;96889.69;;;19.69;100.00
8697;BME280;4385;48.848;8.924;2024-03-23T16:56:56;96884.66;;;19.67;100.00
8697;BME280;4385;48.848;8.924;2024-03-23T16:59:22;96893.97;;;19.68;100.00
8697;BME280;4385;48.848;8.924;2024-03-23T17:01:47;96891.41;;;19.68;100.00
8697;BME280;4385;48.848;8.924;2024-03-23T17:04:12;96894.81;;;19.69;100.00
8697;BME280;4385;48.848;8.924;2024-03-23T17:06:38;96899.91;;;19.69;100.00
8697;BME280;4385;48.848;8.924;2024-03-23T17:09:05;96912.69;;;19.69;100.00
8697;BME280;4385;48.848;8.924;2024-03-23T17:11:33;96920.31;;;19.71;100.00
8697;BME280;4385;48.848;8.924;2024-03-23T17:13:59;96923.69;;;19.71;100.00
8697;BME280;4385;48.848;8.924;2024-03-23T17:16:24;96942.47;;;19.70;100.00
8697;BME280;4385;48.848;8.924;2024-03-23T17:18:50;96932.25;;;19.70;100.00
8697;BME280;4385;48.848;8.924;2024-03-23T17:21:17;96938.22;;;19.71;100.00
8697;BME280;4385;48.848;8.924;2024-03-23T17:23:42;96933.03;;;19.72;100.00
8697;BME280;4385;48.848;8.924;2024-03-23T17:26:07;96929.63;;;19.72;100.00
8697;BME280;4385;48.848;8.924;2024-03-23T17:28:35;96939.03;;;19.71;100.00
8697;BME280;4385;48.848;8.924;2024-03-23T17:31:00;96964.59;;;19.71;100.00
8697;BME280;4385;48.848;8.924;2024-03-23T17:33:25;96981.59;;;19.72;100.00
8697;BME280;4385;48.848;8.924;2024-03-23T17:35:51;96978.16;;;19.73;100.00
8697;BME280;4385;48.848;8.924;2024-03-23T17:38:16;96987.53;;;19.73;100.00
8697;BME280;4385;48.848;8.924;2024-03-23T17:40:41;96987.53;;;19.73;100.00
8697;BME280;4385;48.848;8.924;2024-03-23T17:43:07;96981.59;;;19.72;100.00
8697;BME280;4385;48.848;8.924;2024-03-23T17:45:32;96985.81;;;19.73;100.00
8697;BME280;4385;48.848;8.924;2024-03-23T17:47:57;96947.53;;;19.72;100.00
8697;BME280;4385;48.848;8.924;2024-03-23T17:50:23;96939.03;;;19.71;100.00
8697;BME280;4385;48.848;8.924;2024-03-23T17:52:49;96942.47;;;19.70;100.00
8697;BME280;4385;48.848;8.924;2024-03-23T17:55:14;96946.69;;;19.71;100.00
8697;BME280;4385;48.848;8.924;2024-03-23T17:57:40;96947.66;;;19.68;100.00
8697;BME280;4385;48.848;8.924;2024-03-23T18:00:06;96935.72;;;19.69;100.00
8697;BME280;4385;48.848;8.924;2024-03-23T18:02:35;96935.75;;;19.67;100.00
8697;BME280;4385;48.848;8.924;2024-03-23T18:05:00;96928.91;;;19.68;100.00
8697;BME280;4385;48.848;8.924;2024-03-23T18:07:25;96932.38;;;19.67;100.00
8697;BME280;4385;48.848;8.924;2024-03-23T18:09:51;96927.25;;;19.67;100.00
8697;BME280;4385;48.848;8.924;2024-03-23T18:12:17;96928.97;;;19.66;100.00
8697;BME280;4385;48.848;8.924;2024-03-23T18:14:43;96915.38;;;19.66;100.00
8697;BME280;4385;48.848;8.924;2024-03-23T18:17:08;96915.38;;;19.66;100.00
8697;BME280;4385;48.848;8.924;2024-03-23T18:19:34;96917.13;;;19.64;100.00
8697;BME280;4385;48.848;8.924;2024-03-23T18:21:59;96917.19;;;19.62;100.00
8697;BME280;4385;48.848;8.924;2024-03-23T18:24:25;96924.91;;;19.61;100.00
8697;BME280;4385;48.848;8.924;2024-03-23T18:26:50;96924.13;;;19.59;100.00
8697;BME280;4385;48.848;8.924;2024-03-23T18:29:16;96920.81;;;19.56;100.00
8697;BME280;4385;48.848;8.924;2024-03-23T18:31:42;96918.31;;;19.55;100.00
8697;BME280;4385;48.848;8.924;2024-03-23T18:34:08;96914.13;;;19.52;100.00
8697;BME280;4385;48.848;8.924;2024-03-23T18:36:33;96908.19;;;19.52;100.00
8697;BME280;4385;48.848;8.924;2024-03-23T18:38:59;96902.25;;;19.51;100.00
8697;BME280;4385;48.848;8.924;2024-03-23T18:41:27;96908.19;;;19.52;100.00
8697;BME280;4385;48.848;8.924;2024-03-23T18:43:54;96909.00;;;19.52;100.00
8697;BME280;4385;48.848;8.924;2024-03-23T18:46:20;96898.78;;;19.52;100.00
8697;BME280;4385;48.848;8.924;2024-03-23T18:48:45;96893.69;;;19.52;100.00
8697;BME280;4385;48.848;8.924;2024-03-23T18:51:11;96890.25;;;19.53;100.00
8697;BME280;4385;48.848;8.924;2024-03-23T18:53:36;96888.50;;;19.54;100.00
8697;BME280;4385;48.848;8.924;2024-03-23T18:56:02;96886.81;;;19.54;100.00
8697;BME280;4385;48.848;8.924;2024-03-23T18:58:28;96881.69;;;19.54;100.00
8697;BME280;4385;48.848;8.924;2024-03-23T19:01:01;96874.03;;;19.54;100.00
8697;BME280;4385;48.848;8.924;2024-03-23T19:03:28;96877.47;;;19.53;100.00
8697;BME280;4385;48.848;8.924;2024-03-23T19:05:55;96878.34;;;19.52;100.00
8697;BME280;4385;48.848;8.924;2024-03-23T19:08:20;96893.69;;;19.52;100.00
8697;BME280;4385;48.848;8.924;2024-03-23T19:10:56;96893.56;;;19.55;100.00
8697;BME280;4385;48.848;8.924;2024-03-23T19:13:22;96891.81;;;19.58;100.00
8697;BME280;4385;48.848;8.924;2024-03-23T19:15:48;96889.19;;;19.59;100.00
8697;BME280;4385;48.848;8.924;2024-03-23T19:18:14;96891.75;;;19.59;100.00
8697;BME280;4385;48.848;8.924;2024-03-23T19:20:39;96893.47;;;19.59;100.00
8697;BME280;4385;48.848;8.924;2024-03-23T19:23:05;96885.84;;;19.57;100.00
8697;BME280;4385;48.848;8.924;2024-03-23T19:25:30;96876.47;;;19.58;100.00
8697;BME280;4385;48.848;8.924;2024-03-23T19:27:59;96879.94;;;19.56;100.00
8697;BME280;4385;48.848;8.924;2024-03-23T19:30:25;96877.44;;;19.55;100.00
8697;BME280;4385;48.848;8.924;2024-03-23T19:32:50;96880.03;;;19.53;100.00
8697;BME280;4385;48.848;8.924;2024-03-23T19:35:16;96888.63;;;19.51;100.00
8697;BME280;4385;48.848;8.924;2024-03-23T19:37:42;96895.53;;;19.49;100.00
8697;BME280;4385;48.848;8.924;2024-03-23T19:40:07;96896.41;;;19.48;100.00
8697;BME280;4385;48.848;8.924;2024-03-23T19:42:33;96888.91;;;19.43;100.00
8697;BME280;4385;48.848;8.924;2024-03-23T19:44:58;96888.91;;;19.43;100.00
8697;BME280;4385;48.848;8.924;2024-03-23T19:47:23;96886.34;;;19.43;100.00
8697;BME280;4385;48.848;8.924;2024-03-23T19:49:49;96885.59;;;19.41;100.00
8697;BME280;4385;48.848;8.924;2024-03-23T19:52:15;96882.25;;;19.39;100.00
8697;BME280;4385;48.848;8.924;2024-03-23T19:54:40;96878.09;;;19.36;100.00
8697;BME280;4385;48.848;8.924;2024-03-23T19:57:06;96884.13;;;19.34;100.00
8697;BME280;4385;48.848;8.924;2024-03-23T19:59:31;96878.31;;;19.30;100.00
8697;BME280;4385;48.848;8.924;2024-03-23T20:01:56;96887.72;;;19.28;100.00
8697;BME280;4385;48.848;8.924;2024-03-23T20:04:22;96884.44;;;19.24;100.00
8697;BME280;4385;48.848;8.924;2024-03-23T20:06:47;96887.09;;;19.21;100.00
8697;BME280;4385;48.848;8.924;2024-03-23T20:09:12;96885.56;;;19.17;100.00
8697;BME280;4385;48.848;8.924;2024-03-23T20:11:38;96880.59;;;19.12;100.00
8697;BME280;4385;48.848;8.924;2024-03-23T20:14:03;96882.38;;;19.10;100.00
8697;BME280;4385;48.848;8.924;2024-03-23T20:16:29;96869.69;;;19.07;100.00
8697;BME280;4385;48.848;8.924;2024-03-23T20:18:54;96877.38;;;19.05;100.00
8697;BME280;4385;48.848;8.924;2024-03-23T20:21:20;96877.44;;;19.04;100.00
8697;BME280;4385;48.848;8.924;2024-03-23T20:23:45;96891.16;;;19.01;100.00
8697;BME280;4385;48.848;8.924;2024-03-23T20:26:10;96895.47;;;18.99;100.00
8697;BME280;4385;48.848;8.924;2024-03-23T20:28:36;96893.88;;;18.97;100.00
8697;BME280;4385;48.848;8.924;2024-03-23T20:31:02;96900.69;;;18.96;100.00
8697;BME280;4385;48.848;8.924;2024-03-23T20:33:28;96897.38;;;18.94;100.00
8697;BME280;4385;48.848;8.924;2024-03-23T20:35:54;96907.63;;;18.92;100.00
8697;BME280;4385;48.848;8.924;2024-03-23T20:38:20;96906.78;;;18.92;100.00
8697;BME280;4385;48.848;8.924;2024-03-23T20:40:51;96902.56;;;18.91;100.00
8697;BME280;4385;48.848;8.924;2024-03-23T20:43:16;96896.69;;;18.89;100.00
8697;BME280;4385;48.848;8.924;2024-03-23T20:45:42;96896.72;;;18.87;100.00
8697;BME280;4385;48.848;8.924;2024-03-23T20:48:07;96894.22;;;18.86;100.00
8697;BME280;4385;48.848;8.924;2024-03-23T20:50:32;96895.13;;;18.85;100.00
8697;BME280;4385;48.848;8.924;2024-03-23T20:52:58;96907.03;;;18.84;100.00
8697;BME280;4385;48.848;8.924;2024-03-23T20:55:24;96897.72;;;18.83;100.00
8697;BME280;4385;48.848;8.924;2024-03-23T20:57:50;96904.53;;;18.82;100.00
8697;BME280;4385;48.848;8.924;2024-03-23T21:00:17;96899.47;;;18.81;100.00
8697;BME280;4385;48.848;8.924;2024-03-23T21:02:42;96900.38;;;18.80;100.00
8697;BME280;4385;48.848;8.924;2024-03-23T21:05:08;96903.75;;;18.80;100.00
8697;BME280;4385;48.848;8.924;2024-03-23T21:07:33;96896.97;;;18.79;100.00
8697;BME280;4385;48.848;8.924;2024-03-23T21:09:58;96890.97;;;18.80;100.00
8697;BME280;4385;48.848;8.924;2024-03-23T21:12:24;96884.22;;;18.79;100.00
8697;BME280;4385;48.848;8.924;2024-03-23T21:14:52;96879.13;;;18.79;100.00
8697;BME280;4385;48.848;8.924;2024-03-23T21:17:18;96885.13;;;18.78;100.00
8697;BME280;4385;48.848;8.924;2024-03-23T21:19:46;96885.13;;;18.78;100.00
8697;BME280;4385;48.848;8.924;2024-03-23T21:22:12;96881.72;;;18.78;100.00
8697;BME280;4385;48.848;8.924;2024-03-23T21:24:37;96878.31;;;18.77;100.00
8697;BME280;4385;48.848;8.924;2024-03-23T21:27:02;96885.97;;;18.77;100.00
8697;BME280;4385;48.848;8.924;2024-03-23T21:29:28;96874.13;;;18.76;100.00
8697;BME280;4385;48.848;8.924;2024-03-23T21:31:53;96878.38;;;18.76;100.00
8697;BME280;4385;48.848;8.924;2024-03-23T21:34:18;96882.66;;;18.75;100.00
8697;BME280;4385;48.848;8.924;2024-03-23T21:36:44;96885.28;;;18.74;100.00
8697;BME280;4385;48.848;8.924;2024-03-23T21:39:09;96870.88;;;18.71;100.00
8697;BME280;4385;48.848;8.924;2024-03-23T21:41:38;96868.38;;;18.69;100.00
8697;BME280;4385;48.848;8.924;2024-03-23T21:44:04;96865.88;;;18.68;100.00
8697;BME280;4385;48.848;8.924;2024-03-23T21:46:29;96860.00;;;18.66;100.00
8697;BME280;4385;48.848;8.924;2024-03-23T21:48:54;96857.56;;;18.63;100.00
8697;BME280;4385;48.848;8.924;2024-03-23T21:51:19;96854.22;;;18.61;100.00
8697;BME280;4385;48.848;8.924;2024-03-23T21:53:45;96842.44;;;18.56;100.00
8697;BME280;4385;48.848;8.924;2024-03-23T21:56:10;96844.19;;;18.54;100.00
8697;BME280;4385;48.848;8.924;2024-03-23T21:58:35;96840.03;;;18.52;100.00
8697;BME280;4385;48.848;8.924;2024-03-23T22:01:04;96835.09;;;18.47;100.00
8697;BME280;4385;48.848;8.924;2024-03-23T22:03:29;96835.94;;;18.46;100.00
8697;BME280;4385;48.848;8.924;2024-03-23T22:05:55;96838.56;;;18.44;100.00
8697;BME280;4385;48.848;8.924;2024-03-23T22:08:21;96830.94;;;18.43;100.00
8697;BME280;4385;48.848;8.924;2024-03-23T22:10:47;96821.66;;;18.42;100.00
8697;BME280;4385;48.848;8.924;2024-03-23T22:13:13;96834.41;;;18.42;100.00
8697;BME280;4385;48.848;8.924;2024-03-23T22:15:39;96827.63;;;18.41;100.00
8697;BME280;4385;48.848;8.924;2024-03-23T22:18:04;96826.78;;;18.40;100.00
8697;BME280;4385;48.848;8.924;2024-03-23T22:20:31;96815.75;;;18.40;100.00
8697;BME280;4385;48.848;8.924;2024-03-23T22:22:56;96814.09;;;18.39;100.00
8697;BME280;4385;48.848;8.924;2024-03-23T22:25:22;96812.44;;;18.38;100.00
8697;BME280;4385;48.848;8.924;2024-03-23T22:27:48;96804.88;;;18.35;100.00
8697;BME280;4385;48.848;8.924;2024-03-23T22:30:13;96803.25;;;18.32;100.00
8697;BME280;4385;48.848;8.924;2024-03-23T22:32:39;96797.44;;;18.28;100.00
8697;BME280;4385;48.848;8.924;2024-03-23T22:35:04;96802.63;;;18.25;100.00
8697;BME280;4385;48.848;8.924;2024-03-23T22:37:29;96806.09;;;18.23;100.00
8697;BME280;4385;48.848;8.924;2024-03-23T22:39:54;96804.47;;;18.20;100.00
8697;BME280;4385;48.848;8.924;2024-03-23T22:42:20;96799.47;;;18.17;100.00
8697;BME280;4385;48.848;8.924;2024-03-23T22:44:45;96796.13;;;18.15;100.00
8697;BME280;4385;48.848;8.924;2024-03-23T22:47:10;96796.22;;;18.12;100.00
8697;BME280;4385;48.848;8.924;2024-03-23T22:49:36;96793.69;;;18.10;100.00
8697;BME280;4385;48.848;8.924;2024-03-23T22:52:01;96793.00;;;18.06;100.00
8697;BME280;4385;48.848;8.924;2024-03-23T22:54:26;96782.88;;;18.03;100.00
8697;BME280;4385;48.848;8.924;2024-03-23T22:56:51;96783.78;;;18.01;100.00
8697;BME280;4385;48.848;8.924;2024-03-23T22:59:17;96778.81;;;17.98;100.00
8697;BME280;4385;48.848;8.924;2024-03-23T23:01:43;96778.03;;;17.95;100.00
8697;BME280;4385;48.848;8.924;2024-03-23T23:04:08;96778.94;;;17.93;100.00
8697;BME280;4385;48.848;8.924;2024-03-23T23:06:34;96772.22;;;17.90;100.00
8697;BME280;4385;48.848;8.924;2024-03-23T23:09:02;96766.28;;;17.90;100.00
8697;BME280;4385;48.848;8.924;2024-03-23T23:11:27;96767.25;;;17.87;100.00
8697;BME280;4385;48.848;8.924;2024-03-23T23:13:52;96761.28;;;17.87;100.00
8697;BME280;4385;48.848;8.924;2024-03-23T23:16:17;96757.13;;;17.84;100.00
8697;BME280;4385;48.848;8.924;2024-03-23T23:18:43;96752.94;;;17.83;100.00
8697;BME280;4385;48.848;8.924;2024-03-23T23:21:08;96752.94;;;17.83;100.00
8697;BME280;4385;48.848;8.924;2024-03-23T23:23:33;96747.88;;;17.81;100.00
8697;BME280;4385;48.848;8.924;2024-03-23T23:25:59;96749.59;;;17.81;100.00
8697;BME280;4385;48.848;8.924;2024-03-23T23:28:24;96747.88;;;17.81;100.00
8697;BME280;4385;48.848;8.924;2024-03-23T23:30:57;96746.19;;;17.80;100.00